sensor_id;sensor_type;location;lat;lon;timestamp;pressure;altitude;pressure_sealevel;temperature;humidity
20455;BME280;10386;54.314;10.022;2023-04-02T00:01:37;101795.88;;;3.32;100.00
20455;BME280;10386;54.314;10.022;2023-04-02T00:04:11;101802.22;;;3.29;100.00
20455;BME280;10386;54.314;10.022;2023-04-02T00:06:41;101806.56;;;3.33;100.00
20455;BME280;10386;54.314;10.022;2023-04-02T00:11:45;101823.19;;;3.14;100.00
20455;BME280;10386;54.314;10.022;2023-04-02T00:14:23;101843.16;;;3.36;100.00
20455;BME280;10386;54.314;10.022;2023-04-02T00:16:52;101852.91;;;3.40;100.00
20455;BME280;10386;54.314;10.022;2023-04-02T00:19:30;101861.38;;;3.58;100.00
20455;BME280;10386;54.314;10.022;2023-04-02T00:22:02;101844.50;;;3.53;100.00
20455;BME280;10386;54.314;10.022;2023-04-02T00:24:32;101860.00;;;3.42;100.00
20455;BME280;10386;54.314;10.022;2023-04-02T00:26:59;101868.75;;;3.50;100.00
20455;BME280;10386;54.314;10.022;2023-04-02T00:29:26;101869.56;;;3.52;100.00
20455;BME280;10386;54.314;10.022;2023-04-02T00:31:57;101868.78;;;3.49;100.00
20455;BME280;10386;54.314;10.022;2023-04-02T00:34:29;101881.25;;;3.51;100.00
20455;BME280;10386;54.314;10.022;2023-04-02T00:37:01;101881.00;;;3.60;100.00
20455;BME280;10386;54.314;10.022;2023-04-02T00:39:30;101880.31;;;3.52;100.00
20455;BME280;10386;54.314;10.022;2023-04-02T00:41:58;101888.28;;;3.55;100.00
20455;BME280;10386;54.314;10.022;2023-04-02T00:44:40;101891.19;;;3.48;100.00
20455;BME280;10386;54.314;10.022;2023-04-02T00:47:20;101892.78;;;3.55;100.00
20455;BME280;10386;54.314;10.022;2023-04-02T00:49:53;101897.44;;;3.48;100.00
20455;BME280;10386;54.314;10.022;2023-04-02T00:52:25;101888.25;;;3.57;100.00
20455;BME280;10386;54.314;10.022;2023-04-02T00:57:32;101868.66;;;3.53;100.00
20455;BME280;10386;54.314;10.022;2023-04-02T01:06:06;101860.94;;;3.41;100.00
20455;BME280;10386;54.314;10.022;2023-04-02T01:23:14;101879.53;;;3.49;100.00
20455;BME280;10386;54.314;10.022;2023-04-02T01:25:53;101887.88;;;3.37;100.00
20455;BME280;10386;54.314;10.022;2023-04-02T01:28:53;101902.13;;;3.39;100.00
20455;BME280;10386;54.314;10.022;2023-04-02T01:31:25;101909.25;;;3.40;100.00
20455;BME280;10386;54.314;10.022;2023-04-02T01:33:53;101911.09;;;3.38;100.00
20455;BME280;10386;54.314;10.022;2023-04-02T01:36:38;101923.28;;;3.16;100.00
20455;BME280;10386;54.314;10.022;2023-04-02T01:42:04;101949.97;;;3.22;100.00
20455;BME280;10386;54.314;10.022;2023-04-02T01:44:42;101968.03;;;3.15;100.00
20455;BME280;10386;54.314;10.022;2023-04-02T01:47:11;101969.59;;;3.24;100.00
20455;BME280;10386;54.314;10.022;2023-04-02T01:49:44;101974.16;;;3.20;100.00
20455;BME280;10386;54.314;10.022;2023-04-02T01:52:16;101979.66;;;3.14;100.00
20455;BME280;10386;54.314;10.022;2023-04-02T01:54:45;101982.31;;;3.16;100.00
20455;BME280;10386;54.314;10.022;2023-04-02T01:57:13;101989.56;;;3.11;100.00
20455;BME280;10386;54.314;10.022;2023-04-02T01:59:40;101997.56;;;3.14;100.00
20455;BME280;10386;54.314;10.022;2023-04-02T02:02:11;102000.94;;;3.22;100.00
20455;BME280;10386;54.314;10.022;2023-04-02T02:04:39;101995.44;;;3.28;100.00
20455;BME280;10386;54.314;10.022;2023-04-02T02:07:13;101993.28;;;3.05;100.00
20455;BME280;10386;54.314;10.022;2023-04-02T02:09:42;102002.44;;;2.95;100.00
20455;BME280;10386;54.314;10.022;2023-04-02T02:12:12;102017.59;;;2.98;100.00
20455;BME280;10386;54.314;10.022;2023-04-02T02:14:50;102026.13;;;3.16;100.00
20455;BME280;10386;54.314;10.022;2023-04-02T02:17:23;102025.09;;;3.22;100.00
20455;BME280;10386;54.314;10.022;2023-04-02T02:19:55;102020.91;;;3.09;100.00
20455;BME280;10386;54.314;10.022;2023-04-02T02:22:36;102026.28;;;3.09;100.00
20455;BME280;10386;54.314;10.022;2023-04-02T02:25:09;102021.84;;;3.08;100.00
20455;BME280;10386;54.314;10.022;2023-04-02T02:30:18;102034.56;;;2.98;100.00
20455;BME280;10386;54.314;10.022;2023-04-02T02:35:43;102031.94;;;2.95;100.00
20455;BME280;10386;54.314;10.022;2023-04-02T02:44:13;102060.31;;;3.07;100.00
20455;BME280;10386;54.314;10.022;2023-04-02T02:46:50;102051.66;;;2.93;100.00
20455;BME280;10386;54.314;10.022;2023-04-02T02:49:23;102066.59;;;3.06;100.00
20455;BME280;10386;54.314;10.022;2023-04-02T02:51:58;102063.13;;;3.01;100.00
20455;BME280;10386;54.314;10.022;2023-04-02T02:54:27;102069.44;;;2.98;100.00
20455;BME280;10386;54.314;10.022;2023-04-02T02:57:00;102065.88;;;2.96;100.00
20455;BME280;10386;54.314;10.022;2023-04-02T02:59:29;102073.31;;;2.84;100.00
20455;BME280;10386;54.314;10.022;2023-04-02T03:01:58;102074.25;;;2.81;100.00
20455;BME280;10386;54.314;10.022;2023-04-02T03:04:26;102090.91;;;2.97;100.00
20455;BME280;10386;54.314;10.022;2023-04-02T03:06:56;102093.78;;;2.88;100.00
20455;BME280;10386;54.314;10.022;2023-04-02T03:10:12;102097.16;;;2.97;100.00
20455;BME280;10386;54.314;10.022;2023-04-02T03:13:04;102089.00;;;3.03;100.00
20455;BME280;10386;54.314;10.022;2023-04-02T03:23:41;102102.97;;;3.19;100.00
20455;BME280;10386;54.314;10.022;2023-04-02T03:26:14;102093.53;;;3.01;100.00
20455;BME280;10386;54.314;10.022;2023-04-02T03:28:52;102087.44;;;2.92;100.00
20455;BME280;10386;54.314;10.022;2023-04-02T03:31:36;102110.41;;;3.05;100.00
20455;BME280;10386;54.314;10.022;2023-04-02T03:34:19;102112.38;;;2.97;100.00
20455;BME280;10386;54.314;10.022;2023-04-02T03:39:51;102120.34;;;3.01;100.00
20455;BME280;10386;54.314;10.022;2023-04-02T03:42:27;102129.38;;;2.96;100.00
20455;BME280;10386;54.314;10.022;2023-04-02T03:44:59;102135.72;;;2.92;100.00
20455;BME280;10386;54.314;10.022;2023-04-02T03:47:35;102133.13;;;2.87;100.00
20455;BME280;10386;54.314;10.022;2023-04-02T03:52:47;102145.66;;;2.87;100.00
20455;BME280;10386;54.314;10.022;2023-04-02T03:55:18;102151.03;;;2.87;100.00
20455;BME280;10386;54.314;10.022;2023-04-02T04:00:33;102168.56;;;3.03;100.00
20455;BME280;10386;54.314;10.022;2023-04-02T04:03:09;102160.72;;;2.94;100.00
20455;BME280;10386;54.314;10.022;2023-04-02T04:05:44;102168.06;;;2.83;100.00
20455;BME280;10386;54.314;10.022;2023-04-02T04:08:22;102170.59;;;2.92;100.00
20455;BME280;10386;54.314;10.022;2023-04-02T04:10:55;102171.41;;;2.95;100.00
20455;BME280;10386;54.314;10.022;2023-04-02T04:13:49;102181.13;;;3.01;100.00
20455;BME280;10386;54.314;10.022;2023-04-02T04:16:22;102172.41;;;2.90;100.00
20455;BME280;10386;54.314;10.022;2023-04-02T04:19:02;102191.19;;;2.88;100.00
20455;BME280;10386;54.314;10.022;2023-04-02T04:21:30;102203.81;;;2.83;100.00
20455;BME280;10386;54.314;10.022;2023-04-02T04:24:04;102209.91;;;2.91;100.00
20455;BME280;10386;54.314;10.022;2023-04-02T04:26:49;102214.34;;;2.94;100.00
20455;BME280;10386;54.314;10.022;2023-04-02T04:32:14;102227.41;;;2.65;100.00
20455;BME280;10386;54.314;10.022;2023-04-02T04:34:45;102242.38;;;2.76;100.00
20455;BME280;10386;54.314;10.022;2023-04-02T04:37:23;102248.81;;;2.67;100.00
20455;BME280;10386;54.314;10.022;2023-04-02T04:40:16;102270.88;;;2.82;100.00
20455;BME280;10386;54.314;10.022;2023-04-02T04:42:47;102274.31;;;2.90;100.00
20455;BME280;10386;54.314;10.022;2023-04-02T04:50:56;102287.69;;;2.91;100.00
20455;BME280;10386;54.314;10.022;2023-04-02T04:53:27;102289.44;;;2.94;100.00
20455;BME280;10386;54.314;10.022;2023-04-02T04:55:56;102297.59;;;2.88;100.00
20455;BME280;10386;54.314;10.022;2023-04-02T04:58:55;102295.03;;;2.80;100.00
20455;BME280;10386;54.314;10.022;2023-04-02T05:01:29;102306.66;;;2.81;100.00
20455;BME280;10386;54.314;10.022;2023-04-02T05:04:03;102303.19;;;2.74;100.00
20455;BME280;10386;54.314;10.022;2023-04-02T05:06:43;102311.41;;;2.64;100.00
20455;BME280;10386;54.314;10.022;2023-04-02T05:09:41;102325.69;;;2.66;100.00
20455;BME280;10386;54.314;10.022;2023-04-02T05:12:33;102326.69;;;2.58;100.00
20455;BME280;10386;54.314;10.022;2023-04-02T05:15:25;102345.97;;;2.82;100.00
20455;BME280;10386;54.314;10.022;2023-04-02T05:18:34;102352.06;;;2.91;100.00
20455;BME280;10386;54.314;10.022;2023-04-02T05:21:36;102350.13;;;3.01;100.00
20455;BME280;10386;54.314;10.022;2023-04-02T05:30:01;102356.81;;;2.74;100.00
20455;BME280;10386;54.314;10.022;2023-04-02T05:32:34;102367.47;;;2.79;100.00
20455;BME280;10386;54.314;10.022;2023-04-02T05:35:02;102378.06;;;2.88;100.00
20455;BME280;10386;54.314;10.022;2023-04-02T05:37:32;102375.72;;;3.21;100.00
20455;BME280;10386;54.314;10.022;2023-04-02T05:40:12;102352.59;;;3.13;100.00
20455;BME280;10386;54.314;10.022;2023-04-02T05:42:42;102359.78;;;3.12;100.00
20455;BME280;10386;54.314;10.022;2023-04-02T05:45:31;102355.00;;;3.29;100.00
20455;BME280;10386;54.314;10.022;2023-04-02T05:48:03;102356.69;;;3.35;100.00
20455;BME280;10386;54.314;10.022;2023-04-02T05:50:35;102348.72;;;3.30;100.00
20455;BME280;10386;54.314;10.022;2023-04-02T05:53:09;102341.53;;;3.32;100.00
20455;BME280;10386;54.314;10.022;2023-04-02T05:56:09;102350.34;;;3.40;100.00
20455;BME280;10386;54.314;10.022;2023-04-02T05:58:38;102344.00;;;3.44;100.00
20455;BME280;10386;54.314;10.022;2023-04-02T06:03:55;102346.50;;;3.53;100.00
20455;BME280;10386;54.314;10.022;2023-04-02T06:09:33;102339.00;;;3.70;100.00
20455;BME280;10386;54.314;10.022;2023-04-02T06:12:12;102354.81;;;4.30;100.00
20455;BME280;10386;54.314;10.022;2023-04-02T06:14:42;102360.91;;;5.81;100.00
20455;BME280;10386;54.314;10.022;2023-04-02T06:17:13;102333.19;;;7.20;100.00
20455;BME280;10386;54.314;10.022;2023-04-02T06:19:41;102302.47;;;7.49;100.00
20455;BME280;10386;54.314;10.022;2023-04-02T06:22:17;102284.03;;;8.76;100.00
20455;BME280;10386;54.314;10.022;2023-04-02T06:24:49;102257.13;;;8.50;100.00
20455;BME280;10386;54.314;10.022;2023-04-02T06:27:18;102261.72;;;7.55;100.00
20455;BME280;10386;54.314;10.022;2023-04-02T06:29:49;102281.19;;;7.40;100.00
20455;BME280;10386;54.314;10.022;2023-04-02T06:32:22;102289.00;;;7.47;100.00
20455;BME280;10386;54.314;10.022;2023-04-02T06:34:49;102305.81;;;7.31;100.00
20455;BME280;10386;54.314;10.022;2023-04-02T06:37:32;102341.06;;;7.78;100.00
20455;BME280;10386;54.314;10.022;2023-04-02T06:40:02;102320.78;;;7.90;100.00
20455;BME280;10386;54.314;10.022;2023-04-02T06:42:35;102321.00;;;7.84;100.00
20455;BME280;10386;54.314;10.022;2023-04-02T06:45:04;102330.88;;;8.09;100.00
20455;BME280;10386;54.314;10.022;2023-04-02T06:47:36;102308.88;;;7.71;100.00
20455;BME280;10386;54.314;10.022;2023-04-02T06:50:10;102320.69;;;7.68;100.00
20455;BME280;10386;54.314;10.022;2023-04-02T06:52:45;102331.94;;;6.77;100.00
20455;BME280;10386;54.314;10.022;2023-04-02T06:55:45;102356.25;;;6.48;100.00
20455;BME280;10386;54.314;10.022;2023-04-02T06:58:16;102373.72;;;6.05;100.00
20455;BME280;10386;54.314;10.022;2023-04-02T07:00:45;102423.41;;;5.60;100.00
20455;BME280;10386;54.314;10.022;2023-04-02T07:05:41;102455.19;;;5.11;100.00
20455;BME280;10386;54.314;10.022;2023-04-02T07:08:08;102455.56;;;4.93;100.00
20455;BME280;10386;54.314;10.022;2023-04-02T07:10:35;102480.69;;;4.94;100.00
20455;BME280;10386;54.314;10.022;2023-04-02T07:13:02;102476.97;;;4.99;100.00
20455;BME280;10386;54.314;10.022;2023-04-02T07:15:31;102490.91;;;5.18;100.00
20455;BME280;10386;54.314;10.022;2023-04-02T07:17:58;102496.84;;;5.32;100.00
20455;BME280;10386;54.314;10.022;2023-04-02T07:20:31;102490.09;;;5.14;100.00
20455;BME280;10386;54.314;10.022;2023-04-02T07:22:58;102495.19;;;5.26;100.00
20455;BME280;10386;54.314;10.022;2023-04-02T07:25:25;102497.59;;;5.38;100.00
20455;BME280;10386;54.314;10.022;2023-04-02T07:27:53;102499.53;;;5.33;100.00
20455;BME280;10386;54.314;10.022;2023-04-02T07:30:20;102516.78;;;5.62;100.00
20455;BME280;10386;54.314;10.022;2023-04-02T07:32:47;102521.69;;;5.82;100.00
20455;BME280;10386;54.314;10.022;2023-04-02T07:35:14;102521.00;;;6.09;100.00
20455;BME280;10386;54.314;10.022;2023-04-02T07:37:40;102481.53;;;5.70;100.00
20455;BME280;10386;54.314;10.022;2023-04-02T07:40:15;102483.34;;;5.69;100.00
20455;BME280;10386;54.314;10.022;2023-04-02T07:42:44;102474.91;;;5.48;100.00
20455;BME280;10386;54.314;10.022;2023-04-02T07:45:11;102501.63;;;5.57;100.00
20455;BME280;10386;54.314;10.022;2023-04-02T07:47:38;102497.06;;;5.60;100.00
20455;BME280;10386;54.314;10.022;2023-04-02T07:50:05;102495.84;;;5.72;100.00
20455;BME280;10386;54.314;10.022;2023-04-02T07:52:40;102484.06;;;5.76;100.00
20455;BME280;10386;54.314;10.022;2023-04-02T07:55:12;102496.19;;;5.95;100.00
20455;BME280;10386;54.314;10.022;2023-04-02T07:58:00;102500.78;;;5.91;100.00
20455;BME280;10386;54.314;10.022;2023-04-02T08:00:28;102514.38;;;6.20;100.00
20455;BME280;10386;54.314;10.022;2023-04-02T08:02:55;102522.09;;;6.34;100.00
20455;BME280;10386;54.314;10.022;2023-04-02T08:05:22;102502.72;;;6.20;100.00
20455;BME280;10386;54.314;10.022;2023-04-02T08:07:54;102522.44;;;6.22;100.00
20455;BME280;10386;54.314;10.022;2023-04-02T08:10:21;102517.72;;;6.30;100.00
20455;BME280;10386;54.314;10.022;2023-04-02T08:12:48;102505.50;;;6.17;100.00
20455;BME280;10386;54.314;10.022;2023-04-02T08:15:16;102510.47;;;6.32;100.00
20455;BME280;10386;54.314;10.022;2023-04-02T08:17:43;102525.06;;;6.57;100.00
20455;BME280;10386;54.314;10.022;2023-04-02T08:20:18;102516.19;;;6.52;100.00
20455;BME280;10386;54.314;10.022;2023-04-02T08:22:46;102531.94;;;6.68;100.00
20455;BME280;10386;54.314;10.022;2023-04-02T08:25:13;102517.53;;;6.68;100.00
20455;BME280;10386;54.314;10.022;2023-04-02T08:27:40;102527.19;;;6.76;100.00
20455;BME280;10386;54.314;10.022;2023-04-02T08:30:08;102527.97;;;6.79;100.00
20455;BME280;10386;54.314;10.022;2023-04-02T08:32:37;102528.66;;;6.57;100.00
20455;BME280;10386;54.314;10.022;2023-04-02T08:35:11;102546.28;;;6.69;100.00
20455;BME280;10386;54.314;10.022;2023-04-02T08:37:38;102536.66;;;6.60;100.00
20455;BME280;10386;54.314;10.022;2023-04-02T08:40:06;102551.75;;;6.67;100.00
20455;BME280;10386;54.314;10.022;2023-04-02T08:43:17;102579.03;;;6.88;100.00
20455;BME280;10386;54.314;10.022;2023-04-02T08:45:58;102558.00;;;6.68;100.00
20455;BME280;10386;54.314;10.022;2023-04-02T08:48:29;102560.69;;;6.69;100.00
20455;BME280;10386;54.314;10.022;2023-04-02T08:50:58;102574.47;;;6.90;100.00
20455;BME280;10386;54.314;10.022;2023-04-02T08:53:32;102578.03;;;6.91;100.00
20455;BME280;10386;54.314;10.022;2023-04-02T08:56:25;102592.09;;;7.03;100.00
20455;BME280;10386;54.314;10.022;2023-04-02T08:58:54;102582.69;;;7.16;100.00
20455;BME280;10386;54.314;10.022;2023-04-02T09:04:19;102583.81;;;7.09;100.00
20455;BME280;10386;54.314;10.022;2023-04-02T09:06:48;102584.28;;;7.23;100.00
20455;BME280;10386;54.314;10.022;2023-04-02T09:09:17;102577.38;;;7.13;100.00
20455;BME280;10386;54.314;10.022;2023-04-02T09:11:57;102594.50;;;7.43;100.00
20455;BME280;10386;54.314;10.022;2023-04-02T09:17:01;102580.56;;;7.27;100.00
20455;BME280;10386;54.314;10.022;2023-04-02T09:19:39;102592.00;;;7.37;100.00
20455;BME280;10386;54.314;10.022;2023-04-02T09:22:27;102602.56;;;7.73;100.00
20455;BME280;10386;54.314;10.022;2023-04-02T09:25:00;102587.09;;;7.19;100.00
20455;BME280;10386;54.314;10.022;2023-04-02T09:27:32;102589.78;;;7.20;100.00
20455;BME280;10386;54.314;10.022;2023-04-02T09:30:14;102607.81;;;7.49;100.00
20455;BME280;10386;54.314;10.022;2023-04-02T09:32:53;102594.53;;;7.70;100.00
20455;BME280;10386;54.314;10.022;2023-04-02T09:35:22;102588.41;;;7.65;100.00
20455;BME280;10386;54.314;10.022;2023-04-02T09:43:22;102591.84;;;7.70;100.00
20455;BME280;10386;54.314;10.022;2023-04-02T09:51:12;102592.41;;;8.07;100.00
20455;BME280;10386;54.314;10.022;2023-04-02T09:53:48;102607.59;;;8.11;100.00
20455;BME280;10386;54.314;10.022;2023-04-02T09:56:18;102614.66;;;8.17;100.00
20455;BME280;10386;54.314;10.022;2023-04-02T09:59:04;102614.94;;;8.35;100.00
20455;BME280;10386;54.314;10.022;2023-04-02T10:01:37;102603.53;;;7.98;100.00
20455;BME280;10386;54.314;10.022;2023-04-02T10:04:29;102616.72;;;8.09;100.00
20455;BME280;10386;54.314;10.022;2023-04-02T10:06:53;102618.13;;;8.22;100.00
20455;BME280;10386;54.314;10.022;2023-04-02T10:09:31;102626.00;;;8.00;100.00
20455;BME280;10386;54.314;10.022;2023-04-02T10:12:00;102633.84;;;8.08;100.00
20455;BME280;10386;54.314;10.022;2023-04-02T10:14:37;102626.50;;;8.13;100.00
20455;BME280;10386;54.314;10.022;2023-04-02T10:17:22;102617.00;;;7.72;100.00
20455;BME280;10386;54.314;10.022;2023-04-02T10:20:02;102623.78;;;7.85;100.00
20455;BME280;10386;54.314;10.022;2023-04-02T10:22:31;102598.75;;;7.79;100.00
20455;BME280;10386;54.314;10.022;2023-04-02T10:24:58;102583.06;;;7.90;100.00
20455;BME280;10386;54.314;10.022;2023-04-02T10:27:27;102583.59;;;8.01;100.00
20455;BME280;10386;54.314;10.022;2023-04-02T10:43:58;102635.84;;;7.75;100.00
20455;BME280;10386;54.314;10.022;2023-04-02T10:46:57;102665.78;;;7.97;100.00
20455;BME280;10386;54.314;10.022;2023-04-02T10:51:58;102713.78;;;8.19;100.00
20455;BME280;10386;54.314;10.022;2023-04-02T10:56:57;102723.38;;;8.00;100.00
20455;BME280;10386;54.314;10.022;2023-04-02T10:59:30;102746.78;;;7.72;100.00
20455;BME280;10386;54.314;10.022;2023-04-02T11:02:00;102762.28;;;7.66;100.00
20455;BME280;10386;54.314;10.022;2023-04-02T11:04:34;102782.22;;;7.62;100.00
20455;BME280;10386;54.314;10.022;2023-04-02T11:07:07;102806.84;;;7.82;100.00
20455;BME280;10386;54.314;10.022;2023-04-02T11:09:42;102816.06;;;7.75;100.00
20455;BME280;10386;54.314;10.022;2023-04-02T11:12:22;102819.94;;;7.66;100.00
20455;BME280;10386;54.314;10.022;2023-04-02T11:14:52;102830.28;;;7.49;100.00
20455;BME280;10386;54.314;10.022;2023-04-02T11:17:21;102847.66;;;7.73;100.00
20455;BME280;10386;54.314;10.022;2023-04-02T11:19:48;102841.88;;;7.86;100.00
20455;BME280;10386;54.314;10.022;2023-04-02T11:22:17;102839.78;;;7.97;100.00
20455;BME280;10386;54.314;10.022;2023-04-02T11:30:11;102848.94;;;7.60;100.00
20455;BME280;10386;54.314;10.022;2023-04-02T11:32:46;102850.13;;;7.82;100.00
20455;BME280;10386;54.314;10.022;2023-04-02T11:46:05;102832.13;;;7.81;100.00
20455;BME280;10386;54.314;10.022;2023-04-02T11:48:51;102856.91;;;8.28;100.00
20455;BME280;10386;54.314;10.022;2023-04-02T11:53:52;102814.13;;;7.80;100.00
20455;BME280;10386;54.314;10.022;2023-04-02T11:56:28;102832.84;;;7.87;100.00
20455;BME280;10386;54.314;10.022;2023-04-02T12:09:44;102877.31;;;7.76;100.00
20455;BME280;10386;54.314;10.022;2023-04-02T12:12:26;102892.09;;;7.96;100.00
20455;BME280;10386;54.314;10.022;2023-04-02T12:14:56;102893.03;;;7.94;100.00
20455;BME280;10386;54.314;10.022;2023-04-02T12:17:37;102897.91;;;8.13;100.00
20455;BME280;10386;54.314;10.022;2023-04-02T12:22:45;102889.47;;;7.93;100.00
20455;BME280;10386;54.314;10.022;2023-04-02T12:30:38;102890.41;;;7.59;100.00
20455;BME280;10386;54.314;10.022;2023-04-02T12:35:54;102934.84;;;7.82;100.00
20455;BME280;10386;54.314;10.022;2023-04-02T12:38:34;102938.06;;;7.63;100.00
20455;BME280;10386;54.314;10.022;2023-04-02T12:44:00;102926.78;;;8.13;100.00
20455;BME280;10386;54.314;10.022;2023-04-02T12:46:30;102920.69;;;8.05;100.00
20455;BME280;10386;54.314;10.022;2023-04-02T12:51:49;102929.09;;;7.94;100.00
20455;BME280;10386;54.314;10.022;2023-04-02T12:54:17;102950.81;;;7.91;100.00
20455;BME280;10386;54.314;10.022;2023-04-02T12:56:47;102939.91;;;8.27;100.00
20455;BME280;10386;54.314;10.022;2023-04-02T12:59:28;102930.72;;;8.33;100.00
20455;BME280;10386;54.314;10.022;2023-04-02T13:01:59;102919.91;;;8.33;100.00
20455;BME280;10386;54.314;10.022;2023-04-02T13:04:26;102922.34;;;8.42;100.00
20455;BME280;10386;54.314;10.022;2023-04-02T13:06:54;102934.06;;;8.42;100.00
20455;BME280;10386;54.314;10.022;2023-04-02T13:09:32;102927.22;;;8.29;100.00
20455;BME280;10386;54.314;10.022;2023-04-02T13:12:01;102920.53;;;8.42;100.00
20455;BME280;10386;54.314;10.022;2023-04-02T13:14:28;102919.59;;;8.12;100.00
20455;BME280;10386;54.314;10.022;2023-04-02T13:16:56;102908.47;;;7.90;100.00
20455;BME280;10386;54.314;10.022;2023-04-02T13:19:33;102935.03;;;8.08;100.00
20455;BME280;10386;54.314;10.022;2023-04-02T13:22:02;102924.03;;;7.47;100.00
20455;BME280;10386;54.314;10.022;2023-04-02T13:24:31;102948.38;;;7.82;100.00
20455;BME280;10386;54.314;10.022;2023-04-02T13:27:00;102953.88;;;8.11;100.00
20455;BME280;10386;54.314;10.022;2023-04-02T13:29:29;102957.78;;;8.33;100.00
20455;BME280;10386;54.314;10.022;2023-04-02T13:31:58;102955.91;;;8.35;100.00
20455;BME280;10386;54.314;10.022;2023-04-02T13:34:27;102951.50;;;7.99;100.00
20455;BME280;10386;54.314;10.022;2023-04-02T13:36:54;102946.75;;;7.75;100.00
20455;BME280;10386;54.314;10.022;2023-04-02T13:39:21;102949.66;;;8.01;100.00
20455;BME280;10386;54.314;10.022;2023-04-02T13:41:55;102952.38;;;8.00;100.00
20455;BME280;10386;54.314;10.022;2023-04-02T13:44:27;102953.28;;;7.67;100.00
20455;BME280;10386;54.314;10.022;2023-04-02T13:46:55;102966.38;;;7.83;100.00
20455;BME280;10386;54.314;10.022;2023-04-02T13:49:23;102956.59;;;7.78;100.00
20455;BME280;10386;54.314;10.022;2023-04-02T13:51:53;102987.63;;;7.97;100.00
20455;BME280;10386;54.314;10.022;2023-04-02T13:54:24;102963.69;;;8.15;100.00
20455;BME280;10386;54.314;10.022;2023-04-02T13:56:54;102970.66;;;8.25;100.00
20455;BME280;10386;54.314;10.022;2023-04-02T13:59:22;102973.00;;;8.37;100.00
20455;BME280;10386;54.314;10.022;2023-04-02T14:01:50;102950.31;;;8.09;100.00
20455;BME280;10386;54.314;10.022;2023-04-02T14:04:21;102947.38;;;7.85;100.00
20455;BME280;10386;54.314;10.022;2023-04-02T14:18:16;102969.03;;;7.50;100.00
20455;BME280;10386;54.314;10.022;2023-04-02T14:26:24;102975.94;;;7.61;100.00
20455;BME280;10386;54.314;10.022;2023-04-02T14:31:50;102986.47;;;7.73;100.00
20455;BME280;10386;54.314;10.022;2023-04-02T14:37:01;102957.13;;;7.57;100.00
20455;BME280;10386;54.314;10.022;2023-04-02T14:40:20;102984.25;;;7.54;100.00
20455;BME280;10386;54.314;10.022;2023-04-02T14:42:32;102974.91;;;7.67;100.00
20455;BME280;10386;54.314;10.022;2023-04-02T14:46:06;102961.19;;;7.74;100.00
20455;BME280;10386;54.314;10.022;2023-04-02T14:48:19;102960.13;;;7.81;100.00
20455;BME280;10386;54.314;10.022;2023-04-02T14:50:58;102962.16;;;8.38;100.00
20455;BME280;10386;54.314;10.022;2023-04-02T14:56:14;102939.47;;;7.44;100.00
20455;BME280;10386;54.314;10.022;2023-04-02T14:58:44;102975.84;;;7.64;100.00
20455;BME280;10386;54.314;10.022;2023-04-02T15:01:22;102955.97;;;7.67;100.00
20455;BME280;10386;54.314;10.022;2023-04-02T15:03:59;102984.22;;;7.90;100.00
20455;BME280;10386;54.314;10.022;2023-04-02T15:06:42;102975.09;;;7.94;100.00
20455;BME280;10386;54.314;10.022;2023-04-02T15:09:15;102961.38;;;7.68;100.00
20455;BME280;10386;54.314;10.022;2023-04-02T15:11:47;102962.50;;;7.58;100.00
20455;BME280;10386;54.314;10.022;2023-04-02T15:14:30;102973.47;;;7.52;100.00
20455;BME280;10386;54.314;10.022;2023-04-02T15:16:59;102998.34;;;7.66;100.00
20455;BME280;10386;54.314;10.022;2023-04-02T15:19:26;102993.06;;;7.62;100.00
20455;BME280;10386;54.314;10.022;2023-04-02T15:24:45;102979.38;;;7.31;100.00
20455;BME280;10386;54.314;10.022;2023-04-02T15:30:11;103004.25;;;7.47;100.00
20455;BME280;10386;54.314;10.022;2023-04-02T15:32:41;103012.78;;;7.29;100.00
20455;BME280;10386;54.314;10.022;2023-04-02T15:40:38;103029.16;;;7.23;100.00
20455;BME280;10386;54.314;10.022;2023-04-02T15:46:02;103037.88;;;7.34;100.00
20455;BME280;10386;54.314;10.022;2023-04-02T15:51:49;103054.84;;;7.78;100.00
20455;BME280;10386;54.314;10.022;2023-04-02T15:55:01;103064.66;;;7.44;100.00
20455;BME280;10386;54.314;10.022;2023-04-02T16:03:53;103116.50;;;6.78;100.00
20455;BME280;10386;54.314;10.022;2023-04-02T16:06:29;103132.34;;;6.96;100.00
20455;BME280;10386;54.314;10.022;2023-04-02T16:09:25;103121.41;;;7.03;100.00
20455;BME280;10386;54.314;10.022;2023-04-02T16:12:00;103114.97;;;7.09;100.00
20455;BME280;10386;54.314;10.022;2023-04-02T16:14:35;103089.19;;;6.94;100.00
20455;BME280;10386;54.314;10.022;2023-04-02T16:17:08;103083.00;;;6.89;100.00
20455;BME280;10386;54.314;10.022;2023-04-02T16:19:53;103078.34;;;6.96;100.00
20455;BME280;10386;54.314;10.022;2023-04-02T16:22:25;103050.78;;;6.81;100.00
20455;BME280;10386;54.314;10.022;2023-04-02T16:25:09;103022.97;;;6.76;100.00
20455;BME280;10386;54.314;10.022;2023-04-02T16:27:42;102997.91;;;6.69;100.00
20455;BME280;10386;54.314;10.022;2023-04-02T16:35:53;102942.03;;;6.74;100.00
20455;BME280;10386;54.314;10.022;2023-04-02T16:44:16;102927.03;;;6.60;100.00
20455;BME280;10386;54.314;10.022;2023-04-02T16:57:40;102968.75;;;6.44;100.00
20455;BME280;10386;54.314;10.022;2023-04-02T17:00:30;102967.09;;;6.38;100.00
20455;BME280;10386;54.314;10.022;2023-04-02T17:08:29;103014.00;;;6.30;100.00
20455;BME280;10386;54.314;10.022;2023-04-02T17:11:06;103013.56;;;6.07;100.00
20455;BME280;10386;54.314;10.022;2023-04-02T17:13:46;103017.06;;;6.12;100.00